2022年9月25日

时间 代码 天气 温度 能见度 天花板 METAR/SPECI
14:30
V
31 °C 10 km+ 3.300 ft 110° 110° 18 kt METAR YHID 250430Z AUTO 11018KT 9999 // SCT025 BKN033 31/23 Q1007
14:00
M
31 °C 10 km+ 2.500 ft 110° 110° 18 kt METAR YHID 250400Z AUTO 11018KT 9999 // BKN025 BKN031 31/23 Q1008
13:30
V
32 °C 10 km+ - 110° 110° 18 kt METAR YHID 250330Z AUTO 11018KT 9999 // SCT027 32/24 Q1008 RF00.0/000.0
13:00
V
31 °C 10 km+ - 100° 100° 21 kt METAR YHID 250300Z AUTO 10021KT 9999 // NCD 31/23 Q1008 RF00.0/000.0
12:30
V
31 °C 10 km+ 3.100 ft 110° 110° 19 kt METAR YHID 250230Z AUTO 11019KT 9999 // SCT026 BKN031 31/23 Q1009
12:00
V
31 °C 10 km+ 3.100 ft 110° 110° 17 kt METAR YHID 250200Z AUTO 11017KT 9999 // SCT024 BKN031 31/23 Q1010
11:30
M
30 °C 10 km+ 2.600 ft 110° 110° 15 kt METAR YHID 250130Z AUTO 11015KT 9999 // BKN026 30/23 Q1010 RF00.0/000.0
11:00
V
31 °C 10 km+ - 110° 110° 16 kt METAR YHID 250100Z AUTO 11016KT 9999 // SCT024 SCT032 31/24 Q1010
10:30
V
30 °C 10 km+ 3.000 ft 120° 120° 16 kt METAR YHID 250030Z AUTO 12016KT 9999 // SCT026 BKN030 30/23 Q1010
10:00
V
31 °C 10 km+ - 120° 120° 17 kt METAR YHID 250000Z AUTO 12017KT 9999 // SCT024 SCT028 SCT034 31/23 Q1010
09:30
M
30 °C 10 km+ 2.600 ft 120° 120° 13 kt METAR YHID 242330Z AUTO 12013KT 9999 // SCT020 BKN026 BKN030 30/24 Q1011
09:00
V
28 °C 10 km+ 3.500 ft 140° 140° 10 kt METAR YHID 242300Z AUTO 14010KT 9999 // SCT022 SCT026 OVC035 28/23 Q1011
08:30
V
28 °C 10 km+ 3.500 ft 130° 130° 11 kt METAR YHID 242230Z AUTO 13011KT 9999 // SCT021 SCT026 BKN035 28/23 Q1010
08:00
V
28 °C 10 km+ 11.500 ft 140° 140° 11 kt METAR YHID 242200Z AUTO 14011KT 9999 // SCT031 SCT037 OVC115 28/23 Q1010
07:30
V
28 °C 10 km+ 3.700 ft 150° 150° 9 kt METAR YHID 242130Z AUTO 15009KT 9999 // OVC037 28/23 Q1009 RF00.0/000.0
07:00
V
27 °C 10 km+ 3.700 ft 150° 150° 7 kt METAR YHID 242100Z AUTO 15007KT 9999 // BKN037 OVC115 27/23 Q1009
06:30
V
27 °C 10 km+ 3.700 ft 150° 150° 7 kt METAR YHID 242030Z AUTO 15007KT 9999 // BKN037 27/22 Q1009 RF00.0/000.0
06:00
V
26 °C 10 km+ 3.700 ft 140° 140° 7 kt METAR YHID 242000Z AUTO 14007KT 9999 // BKN037 BKN100 OVC125 26/23 Q1009
05:30
V
26 °C 10 km+ 12.500 ft 150° 150° 8 kt METAR YHID 241930Z AUTO 15008KT 9999 // OVC125 26/23 Q1008 RF00.0/000.0
05:00
V
26 °C 10 km+ 12.500 ft 150° 150° 7 kt METAR YHID 241900Z AUTO 15007KT 9999 // OVC125 26/23 Q1008 RF00.0/000.0
04:30
V
26 °C 10 km+ 12.500 ft 140° 140° 6 kt METAR YHID 241830Z AUTO 14006KT 9999 // OVC125 26/23 Q1008 RF00.0/000.0
04:00
V
26 °C 10 km+ - 140° 140° 7 kt METAR YHID 241800Z AUTO 14007KT 9999 // SCT039 26/22 Q1008 RF00.0/000.0
03:30
V
26 °C 10 km+ - 140° 140° 7 kt METAR YHID 241730Z AUTO 14007KT 9999 // SCT039 26/22 Q1008 RF00.0/000.0
03:00
V
26 °C 10 km+ - 140° 140° 9 kt METAR YHID 241700Z AUTO 14009KT 9999 // NCD 26/22 Q1008 RF00.0/000.0
02:30
V
26 °C 10 km+ - 150° 150° 7 kt METAR YHID 241630Z AUTO 15007KT 9999 // NCD 26/23 Q1008 RF00.0/000.0
02:00
V
26 °C 10 km+ - 140° 140° 8 kt METAR YHID 241600Z AUTO 14008KT 9999 // SCT080 26/23 Q1009 RF00.0/000.0
01:30
V
26 °C 10 km+ - 140° 140° 7 kt METAR YHID 241530Z AUTO 14007KT 9999 // NCD 26/23 Q1009 RF00.0/000.0
01:00
V
26 °C 10 km+ - 160° 160° 7 kt METAR YHID 241500Z AUTO 16007KT 9999 // NCD 26/23 Q1009 RF00.0/000.0
00:30
V
26 °C 10 km+ - 130° 130° 7 kt METAR YHID 241430Z AUTO 13007KT 9999 // NCD 26/23 Q1010 RF00.0/000.0
00:00
V
27 °C 10 km+ - 130° 130° 10 kt METAR YHID 241400Z AUTO 13010KT 9999 // NCD 27/22 Q1010 RF00.0/000.0

2022年9月24日

时间 代码 天气 温度 能见度 天花板 METAR/SPECI
23:30
V
27 °C 10 km+ - 130° 130° 10 kt METAR YHID 241330Z AUTO 13010KT 9999 // NCD 27/22 Q1010 RF00.0/000.0
23:00
V
27 °C 10 km+ - 130° 130° 9 kt METAR YHID 241300Z AUTO 13009KT 9999 // NCD 27/22 Q1010 RF00.0/000.0
22:30
V
27 °C 10 km+ - 120° 120° 11 kt METAR YHID 241230Z AUTO 12011KT 9999 // SCT115 27/22 Q1010 RF00.0/000.0
22:00
V
27 °C 10 km+ - 110° 110° 11 kt METAR YHID 241200Z AUTO 11011KT 9999 // SCT115 27/22 Q1010 RF00.0/000.0
21:30
V
27 °C 10 km+ - 110° 110° 10 kt METAR YHID 241130Z AUTO 11010KT 9999 // NCD 27/22 Q1010 RF00.0/000.0
21:00
V
27 °C 10 km+ - 110° 110° 11 kt METAR YHID 241100Z AUTO 11011KT 9999 // NCD 27/22 Q1010 RF00.0/000.0
20:30
V
27 °C 10 km+ - 120° 120° 13 kt METAR YHID 241030Z AUTO 12013KT 9999 // NCD 27/22 Q1009 RF00.0/000.0
20:00
V
27 °C 10 km+ - 110° 110° 11 kt METAR YHID 241000Z AUTO 11011KT 9999 // NCD 27/22 Q1009 RF00.0/000.0
19:30
V
27 °C 10 km+ - 110° 110° 11 kt METAR YHID 240930Z AUTO 11011KT 9999 // NCD 27/22 Q1009 RF00.0/000.0
19:00
V
27 °C 10 km+ - 110° 110° 10 kt METAR YHID 240900Z AUTO 11010KT 9999 // NCD 27/22 Q1008 RF00.0/000.0
18:30
V
27 °C 10 km+ - 110° 110° 10 kt METAR YHID 240830Z AUTO 11010KT 9999 // NCD 27/22 Q1008 RF00.0/000.0
18:00
V
28 °C 10 km+ - 100° 100° 9 kt METAR YHID 240800Z AUTO 10009KT 9999 // NCD 28/23 Q1008 RF00.0/000.0
17:30
V
28 °C 10 km+ - 100° 100° 13 kt METAR YHID 240730Z AUTO 10013KT 9999 // NCD 28/22 Q1007 RF00.0/000.0
17:00
V
30 °C 10 km+ - 090° 090° 14 kt METAR YHID 240700Z AUTO 09014KT 9999 // NCD 30/22 Q1007 RF00.0/000.0
16:30
V
29 °C 10 km+ - 090° 090° 14 kt METAR YHID 240630Z AUTO 09014KT 9999 // NCD 29/22 Q1007 RF00.0/000.0
16:00
V
30 °C 10 km+ - 090° 090° 14 kt METAR YHID 240600Z AUTO 09014KT 9999 // NCD 30/22 Q1007 RF00.0/000.0
15:30
V
30 °C 10 km+ - 100° 100° 12 kt METAR YHID 240530Z AUTO 10012KT 9999 // NCD 30/23 Q1007 RF00.0/000.0
15:00
V
30 °C 10 km+ - 090° 090° 13 kt METAR YHID 240500Z AUTO 09013KT 9999 // NCD 30/22 Q1007 RF00.0/000.0
14:30
V
31 °C 10 km+ - 080° 080° 13 kt METAR YHID 240430Z AUTO 08013KT 9999 // NCD 31/23 Q1008 RF00.0/000.0
14:00
V
30 °C 10 km+ - 080° 080° 13 kt METAR YHID 240400Z AUTO 08013KT 9999 // NCD 30/23 Q1008 RF00.0/000.0
13:30
V
30 °C 10 km+ - 100° 100° 13 kt METAR YHID 240330Z AUTO 10013KT 9999 // NCD 30/22 Q1008 RF00.0/000.0
13:00
V
30 °C 10 km+ - 080° 080° 11 kt METAR YHID 240300Z AUTO 08011KT 9999 // NCD 30/22 Q1008 RF00.0/000.0
12:30
V
30 °C 10 km+ - 060° 060° 12 kt METAR YHID 240230Z AUTO 06012KT 9999 // NCD 30/23 Q1009 RF00.0/000.0
12:00
V
31 °C 10 km+ - 070° 070° 11 kt METAR YHID 240200Z AUTO 07011KT 9999 // NCD 31/22 Q1010 RF00.0/000.0
11:30
V
30 °C 10 km+ - 090° 090° 11 kt METAR YHID 240130Z AUTO 09011KT 9999 // NCD 30/22 Q1010 RF00.0/000.0
11:00
V
30 °C 10 km+ - 090° 090° 11 kt METAR YHID 240100Z AUTO 09011KT 9999 // NCD 30/22 Q1011 RF00.0/000.0
10:30
V
30 °C 10 km+ - 090° 090° 11 kt METAR YHID 240030Z AUTO 09011KT 9999 // NCD 30/22 Q1011 RF00.0/000.0
10:00
V
29 °C 10 km+ - 080° 080° 10 kt METAR YHID 240000Z AUTO 08010KT 9999 // NCD 29/22 Q1011 RF00.0/000.0
09:30
V
29 °C 10 km+ - 080° 080° 11 kt METAR YHID 232330Z AUTO 08011KT 9999 // SCT019 29/22 Q1011 RF00.0/000.0
09:00
V
29 °C 10 km+ - 110° 110° 10 kt METAR YHID 232300Z AUTO 11010KT 9999 // SCT017 29/23 Q1011 RF00.0/000.0
08:30
V
28 °C 10 km+ - 090° 090° 8 kt METAR YHID 232230Z AUTO 09008KT 9999 // SCT017 28/22 Q1011 RF00.0/000.0
08:00
V
28 °C 10 km+ - 110° 110° 7 kt METAR YHID 232200Z AUTO 11007KT 9999 // NCD 28/22 Q1010 RF00.0/000.0
07:30
V
27 °C 10 km+ - 150° 150° 4 kt METAR YHID 232130Z AUTO 15004KT 9999 // NCD 27/23 Q1010 RF00.0/000.0
07:00
V
25 °C 10 km+ - 150° 150° 3 kt METAR YHID 232100Z AUTO 15003KT 9999 // NCD 25/23 Q1010 RF00.0/000.0
06:30
V
24 °C 10 km+ - 150° 150° 4 kt METAR YHID 232030Z AUTO 15004KT 9999 // NCD 24/22 Q1009 RF00.0/000.0
06:00
V
24 °C 10 km+ - 150° 150° 3 kt METAR YHID 232000Z AUTO 15003KT 9999 // NCD 24/22 Q1009 RF00.0/000.0
05:30
V
24 °C 10 km+ - 170° 170° 3 kt METAR YHID 231930Z AUTO 17003KT 9999 // NCD 24/22 Q1009 RF00.0/000.0
05:00
V
24 °C 10 km+ - 170° 170° 5 kt METAR YHID 231900Z AUTO 17005KT 9999 // NCD 24/23 Q1009 RF00.0/000.0
04:30
V
25 °C 10 km+ - 150° 150° 4 kt METAR YHID 231830Z AUTO 15004KT 9999 // NCD 25/23 Q1009 RF00.0/000.0
04:00
V
25 °C 10 km+ - 160° 160° 5 kt METAR YHID 231800Z AUTO 16005KT 9999 // SCT021 25/23 Q1009 RF00.0/000.0
03:30
V
24 °C 10 km+ - 160° 160° 4 kt METAR YHID 231730Z AUTO 16004KT 9999 // SCT019 24/22 Q1009 RF00.0/000.0
03:00
V
24 °C 10 km+ - 150° 150° 4 kt METAR YHID 231700Z AUTO 15004KT 9999 // NCD 24/23 Q1009 RF00.0/000.0
02:30
V
25 °C 10 km+ - 130° 130° 3 kt METAR YHID 231630Z AUTO 13003KT 9999 // NCD 25/23 Q1009 RF00.0/000.0
02:00
V
25 °C 10 km+ - 130° 130° 4 kt METAR YHID 231600Z AUTO 13004KT 9999 // NCD 25/23 Q1009 RF00.0/000.0
01:30
V
25 °C 10 km+ - 130° 130° 5 kt METAR YHID 231530Z AUTO 13005KT 9999 // NCD 25/23 Q1010 RF00.0/000.0
01:00
V
25 °C 10 km+ - 120° 120° 5 kt METAR YHID 231500Z AUTO 12005KT 9999 // SCT015 25/23 Q1010 RF00.0/000.0
00:30
V
25 °C 10 km+ - 120° 120° 5 kt METAR YHID 231430Z AUTO 12005KT 9999 // NCD 25/23 Q1010 RF00.0/000.0
00:00
V
25 °C 10 km+ - 140° 140° 4 kt METAR YHID 231400Z AUTO 14004KT 9999 // NCD 25/23 Q1011 RF00.0/000.0

2022年9月23日

时间 代码 天气 温度 能见度 天花板 METAR/SPECI
23:30
V
26 °C 10 km+ - 120° 120° 5 kt METAR YHID 231330Z AUTO 12005KT 9999 // NCD 26/23 Q1011 RF00.0/000.0
23:00
V
26 °C 10 km+ - 120° 120° 6 kt METAR YHID 231300Z AUTO 12006KT 9999 // NCD 26/23 Q1011 RF00.0/000.0
22:30
V
26 °C 10 km+ - 120° 120° 7 kt METAR YHID 231230Z AUTO 12007KT 9999 // NCD 26/23 Q1011 RF00.0/000.0
22:00
V
26 °C 10 km+ - 110° 110° 8 kt METAR YHID 231200Z AUTO 11008KT 9999 // NCD 26/23 Q1011 RF00.0/000.0
21:30
V
26 °C 10 km+ - 140° 140° 5 kt METAR YHID 231130Z AUTO 14005KT 9999 // NCD 26/23 Q1010 RF00.0/000.0
21:00
V
26 °C 10 km+ - 120° 120° 6 kt METAR YHID 231100Z AUTO 12006KT 9999 // NCD 26/23 Q1010 RF00.0/000.0
20:30
V
27 °C 10 km+ - 120° 120° 6 kt METAR YHID 231030Z AUTO 12006KT 9999 // NCD 27/22 Q1010 RF00.0/000.0
20:00
V
27 °C 10 km+ - 090° 090° 7 kt METAR YHID 231000Z AUTO 09007KT 9999 // NCD 27/22 Q1010 RF00.0/000.0
19:30
V
27 °C 10 km+ - 090° 090° 6 kt METAR YHID 230930Z AUTO 09006KT 9999 // NCD 27/23 Q1009 RF00.0/000.0
19:00
V
27 °C 10 km+ - 090° 090° 7 kt METAR YHID 230900Z AUTO 09007KT 9999 // NCD 27/22 Q1009 RF00.0/000.0
18:30
V
27 °C 10 km+ - 080° 080° 7 kt METAR YHID 230830Z AUTO 08007KT 9999 // NCD 27/22 Q1009 RF00.0/000.0
18:00
V
28 °C 10 km+ - 070° 070° 7 kt METAR YHID 230800Z AUTO 07007KT 9999 // NCD 28/23 Q1009 RF00.0/000.0
17:30
V
29 °C 10 km+ - 070° 070° 9 kt METAR YHID 230730Z AUTO 07009KT 9999 // NCD 29/23 Q1008 RF00.0/000.0
17:00
V
29 °C 10 km+ - 090° 090° 11 kt METAR YHID 230700Z AUTO 09011KT 9999 // NCD 29/23 Q1008 RF00.0/000.0
16:30
V
30 °C 10 km+ - 080° 080° 11 kt METAR YHID 230630Z AUTO 08011KT 9999 // NCD 30/23 Q1008 RF00.0/000.0
16:00
V
30 °C 10 km+ - 080° 080° 12 kt METAR YHID 230600Z AUTO 08012KT 9999 // NCD 30/22 Q1008 RF00.0/000.0
15:30
V
30 °C 10 km+ - 090° 090° 12 kt METAR YHID 230530Z AUTO 09012KT 9999 // NCD 30/23 Q1008 RF00.0/000.0
15:00
V
30 °C 10 km+ - 090° 090° 12 kt METAR YHID 230500Z AUTO 09012KT 9999 // NCD 30/22 Q1008 RF00.0/000.0
14:30
V
30 °C 10 km+ - 080° 080° 11 kt METAR YHID 230430Z AUTO 08011KT 9999 // NCD 30/22 Q1009 RF00.0/000.0
14:00
V
31 °C 10 km+ - 080° 080° 11 kt METAR YHID 230400Z AUTO 08011KT 9999 // NCD 31/22 Q1009 RF00.0/000.0
13:30
V
30 °C 10 km+ - 100° 100° 11 kt METAR YHID 230330Z AUTO 10011KT 9999 // NCD 30/23 Q1010 RF00.0/000.0
13:00
V
31 °C 10 km+ - 070° 070° 10 kt METAR YHID 230300Z AUTO 07010KT 9999 // NCD 31/22 Q1010 RF00.0/000.0
12:30
V
31 °C 10 km+ - 060° 060° 9 kt METAR YHID 230230Z AUTO 06009KT 9999 // NCD 31/23 Q1011 RF00.0/000.0
12:00
V
31 °C 10 km+ - 080° 080° 11 kt METAR YHID 230200Z AUTO 08011KT 9999 // NCD 31/21 Q1011 RF00.0/000.0
11:30
V
31 °C 10 km+ - 080° 080° 11 kt METAR YHID 230130Z AUTO 08011KT 9999 // SCT022 31/23 Q1012 RF00.0/000.0
11:00
V
31 °C 10 km+ - 100° 100° 9 kt METAR YHID 230100Z AUTO 10009KT 050V140 9999 // SCT022 31/23 Q1012
10:30
V
30 °C 10 km+ - 110° 110° 10 kt METAR YHID 230030Z AUTO 11010KT 9999 // SCT022 30/22 Q1012 RF00.0/000.0
10:00
V
30 °C 10 km+ - 120° 120° 10 kt METAR YHID 230000Z AUTO 12010KT 9999 // SCT020 30/22 Q1012 RF00.0/000.0
较旧的数据

我们和第三方通过cookies跟踪您在我们网站上的上网行为。如果您继续,我们认为您同意我们的cookie政策。 了解更多